createdAt,value
2023-11-07T00:00:01.765Z,100
2023-11-07T00:07:01.728Z,100
2023-11-07T00:14:01.816Z,100
2023-11-07T00:21:01.884Z,100
2023-11-07T00:28:02.276Z,100
2023-11-07T00:35:01.838Z,100
2023-11-07T00:42:01.937Z,100
2023-11-07T00:49:01.579Z,100
2023-11-07T00:56:02.305Z,100
2023-11-07T01:00:01.789Z,100
2023-11-07T01:07:01.854Z,100
2023-11-07T01:14:02.152Z,100
2023-11-07T01:21:01.938Z,100
2023-11-07T01:28:01.511Z,100
2023-11-07T01:35:01.641Z,100
2023-11-07T01:42:02.322Z,100
2023-11-07T01:49:01.981Z,100
2023-11-07T01:56:01.969Z,100
2023-11-07T02:00:01.407Z,100
2023-11-07T02:07:02.192Z,100
2023-11-07T02:14:01.700Z,100
2023-11-07T02:21:02.106Z,100
2023-11-07T02:28:02.247Z,100
2023-11-07T02:35:02.392Z,100
2023-11-07T02:42:01.786Z,100
2023-11-07T02:49:01.965Z,100
2023-11-07T02:56:01.714Z,100
2023-11-07T03:00:02.276Z,100
2023-11-07T03:07:01.810Z,100
2023-11-07T03:14:02.155Z,100
2023-11-07T03:21:01.897Z,100
2023-11-07T03:28:01.811Z,100
2023-11-07T03:35:02.150Z,100
2023-11-07T03:42:02.194Z,100
2023-11-07T03:49:02.444Z,100
2023-11-07T03:56:01.949Z,100
2023-11-07T04:00:01.408Z,100
2023-11-07T04:07:02.102Z,100
2023-11-07T04:14:01.482Z,100
2023-11-07T04:21:02.289Z,100
2023-11-07T04:28:02.214Z,100
2023-11-07T04:35:01.619Z,100
2023-11-07T04:42:02.113Z,100
2023-11-07T04:49:02.213Z,100
2023-11-07T04:56:02.131Z,100
2023-11-07T05:00:01.893Z,100
2023-11-07T05:07:01.484Z,100
2023-11-07T05:14:01.813Z,100
2023-11-07T05:21:02.190Z,100
2023-11-07T05:28:01.694Z,100
2023-11-07T05:35:01.929Z,100
2023-11-07T05:42:01.885Z,100
2023-11-07T05:49:02.311Z,100
2023-11-07T05:56:01.605Z,100
2023-11-07T06:00:02.150Z,100
2023-11-07T06:07:02.369Z,100
2023-11-07T06:14:01.641Z,100
2023-11-07T06:21:02.134Z,100
2023-11-07T06:28:01.727Z,100
2023-11-07T06:35:02.343Z,100
2023-11-07T06:42:02.308Z,100
2023-11-07T06:49:02.950Z,100
2023-11-07T06:56:02.174Z,100
2023-11-07T07:00:01.658Z,100
2023-11-07T07:07:01.619Z,100
2023-11-07T07:14:01.878Z,100
2023-11-07T07:21:01.685Z,100
2023-11-07T07:28:01.802Z,100
2023-11-07T07:35:02.048Z,100
2023-11-07T07:42:01.818Z,100
2023-11-07T07:49:02.373Z,100
2023-11-07T07:56:01.821Z,100
2023-11-07T08:00:02.394Z,100
2023-11-07T08:07:02.126Z,100
2023-11-07T08:14:02.107Z,100
2023-11-07T08:21:02.288Z,100
2023-11-07T08:28:01.665Z,100
2023-11-07T08:35:01.943Z,100
2023-11-07T08:42:02.126Z,100
2023-11-07T08:49:01.737Z,100
2023-11-07T08:56:01.991Z,100
2023-11-07T09:00:01.550Z,100
2023-11-07T09:07:01.748Z,100
2023-11-07T09:14:01.683Z,100
2023-11-07T09:21:01.692Z,100
2023-11-07T09:28:02.117Z,100
2023-11-07T09:35:01.715Z,100
2023-11-07T09:42:02.181Z,100
2023-11-07T09:49:02.199Z,100
2023-11-07T09:56:02.342Z,100
2023-11-07T10:00:02.079Z,100
2023-11-07T10:07:01.989Z,100
2023-11-07T10:14:02.214Z,100
2023-11-07T10:21:02.425Z,98.579
2023-11-07T10:28:01.641Z,98.579
2023-11-07T10:35:01.539Z,97.381
2023-11-07T10:42:01.678Z,97.381
2023-11-07T10:49:01.891Z,97.274
2023-11-07T10:56:01.828Z,97.274
2023-11-07T11:00:02.420Z,96.813
2023-11-07T11:07:01.650Z,96.813
2023-11-07T11:14:02.227Z,97.184
2023-11-07T11:21:01.676Z,97.184
2023-11-07T11:28:02.001Z,95.087
2023-11-07T11:35:02.119Z,95.087
2023-11-07T11:42:01.735Z,92.039
2023-11-07T11:49:01.804Z,92.039
2023-11-07T11:56:01.825Z,90.958
2023-11-07T12:00:02.376Z,90.958
2023-11-07T12:07:01.720Z,89.463
2023-11-07T12:14:01.995Z,89.463
2023-11-07T12:21:01.689Z,84.935
2023-11-07T12:28:01.731Z,84.935
2023-11-07T12:35:02.082Z,86.671
2023-11-07T12:42:02.102Z,89.276
2023-11-07T12:49:01.688Z,89.276
2023-11-07T12:56:02.203Z,92.892
2023-11-07T13:00:01.721Z,92.892
2023-11-07T13:07:01.885Z,91.291
2023-11-07T13:14:01.742Z,91.291
2023-11-07T13:21:01.638Z,95.163
2023-11-07T13:28:01.804Z,95.163
2023-11-07T13:35:02.125Z,95.367
2023-11-07T13:42:01.693Z,95.367
2023-11-07T13:49:02.410Z,96.083
2023-11-07T13:56:02.164Z,96.083
2023-11-07T14:00:01.680Z,96.9
2023-11-07T14:07:01.624Z,96.9
2023-11-07T14:14:02.183Z,96.77
2023-11-07T14:21:01.559Z,96.77
2023-11-07T14:28:02.217Z,92.99
2023-11-07T14:35:01.408Z,92.99
2023-11-07T14:42:02.208Z,93.313
2023-11-07T14:49:02.056Z,93.313
2023-11-07T14:56:02.220Z,90.354
2023-11-07T15:00:01.724Z,90.354
2023-11-07T15:07:01.463Z,89.201
2023-11-07T15:14:01.889Z,89.201
2023-11-07T15:21:01.968Z,86.627
2023-11-07T15:28:02.195Z,86.627
2023-11-07T15:35:04.325Z,86.941
2023-11-07T15:42:01.663Z,88.31
2023-11-07T15:49:01.752Z,88.31
2023-11-07T15:56:01.613Z,89.244
2023-11-07T16:00:02.103Z,89.244
2023-11-07T16:07:02.041Z,90.309
2023-11-07T16:14:01.962Z,90.309
2023-11-07T16:21:02.190Z,91.166
2023-11-07T16:28:05.545Z,91.166
2023-11-07T16:35:01.596Z,90.932
2023-11-07T16:42:01.692Z,90.932
2023-11-07T16:49:02.335Z,91.981
2023-11-07T16:56:02.002Z,91.981
2023-11-07T17:00:03.480Z,92.456
2023-11-07T17:07:02.143Z,92.456
2023-11-07T17:14:02.387Z,92.937
2023-11-07T17:21:01.797Z,92.937
2023-11-07T17:28:01.964Z,93.525
2023-11-07T17:35:02.410Z,93.525
2023-11-07T17:42:02.149Z,93.734
2023-11-07T17:49:02.016Z,93.734
2023-11-07T17:56:01.426Z,93.935
2023-11-07T18:00:01.990Z,93.935
2023-11-07T18:07:01.412Z,94.202
2023-11-07T18:14:02.176Z,94.202
2023-11-07T18:21:01.503Z,94.374
2023-11-07T18:28:01.964Z,94.374
2023-11-07T18:35:02.036Z,94.578
2023-11-07T18:42:01.861Z,95.034
2023-11-07T18:49:02.372Z,95.034
2023-11-07T18:56:02.179Z,95.034
2023-11-07T19:00:01.740Z,95.034
2023-11-07T19:07:02.368Z,95.034
2023-11-07T19:14:01.839Z,94.85
2023-11-07T19:21:01.566Z,95.511
2023-11-07T19:28:01.988Z,95.511
2023-11-07T19:35:01.495Z,95.546
2023-11-07T19:42:02.470Z,95.546
2023-11-07T19:49:01.886Z,95.783
2023-11-07T19:56:01.935Z,95.783
2023-11-07T20:00:01.564Z,95.492
2023-11-07T20:07:02.741Z,95.492
2023-11-07T20:14:02.123Z,95.881
2023-11-07T20:21:01.596Z,95.881
2023-11-07T20:28:02.369Z,96.128
2023-11-07T20:35:01.617Z,96.128
2023-11-07T20:42:02.226Z,96.497
2023-11-07T20:49:02.910Z,96.497
2023-11-07T20:56:02.297Z,96.848
2023-11-07T21:00:02.054Z,96.848
2023-11-07T21:07:02.159Z,97.061
2023-11-07T21:14:02.056Z,97.061
2023-11-07T21:21:02.481Z,97.321
2023-11-07T21:28:01.860Z,97.321
2023-11-07T21:35:01.968Z,97.575
2023-11-07T21:42:02.043Z,97.735
2023-11-07T21:49:01.727Z,97.735
2023-11-07T21:56:02.365Z,97.822
2023-11-07T22:00:01.812Z,97.822
2023-11-07T22:07:01.884Z,97.822
2023-11-07T22:14:01.614Z,97.981
2023-11-07T22:21:01.635Z,97.836
2023-11-07T22:28:01.885Z,97.836
2023-11-07T22:35:01.882Z,97.551
2023-11-07T22:42:01.880Z,97.551
2023-11-07T22:49:02.279Z,97.375
2023-11-07T22:56:02.363Z,97.375
2023-11-07T23:00:01.867Z,96.17
2023-11-07T23:07:01.438Z,96.17
2023-11-07T23:14:01.678Z,95.795
2023-11-07T23:21:02.227Z,95.795
2023-11-07T23:28:02.136Z,98.963
2023-11-07T23:35:01.874Z,98.963
2023-11-07T23:42:02.271Z,98.761
2023-11-07T23:49:02.046Z,98.761
2023-11-07T23:56:01.812Z,100
